createdAt,value
2022-10-18T05:00:39.999Z,14.89
2022-10-18T05:03:10.010Z,14.94
2022-10-18T05:06:00.171Z,15.00
2022-10-18T05:08:27.706Z,15.04
2022-10-18T05:10:57.213Z,15.06
2022-10-18T05:13:26.349Z,15.08
2022-10-18T05:15:54.679Z,15.08
2022-10-18T05:18:23.456Z,15.12
2022-10-18T05:20:52.707Z,15.16
2022-10-18T05:23:21.610Z,15.19
2022-10-18T05:25:50.793Z,15.21
2022-10-18T05:28:39.602Z,15.23
2022-10-18T05:31:11.347Z,15.21
2022-10-18T05:33:40.420Z,15.21
2022-10-18T05:36:09.875Z,15.24
2022-10-18T05:38:39.595Z,15.27
2022-10-18T05:41:09.313Z,15.29
2022-10-18T05:43:38.363Z,15.31
2022-10-18T05:46:14.790Z,15.31
2022-10-18T05:48:45.361Z,15.30
2022-10-18T05:51:14.082Z,15.31
2022-10-18T05:53:42.867Z,15.34
2022-10-18T05:56:15.117Z,15.40
2022-10-18T05:58:43.754Z,15.43
2022-10-18T06:01:12.273Z,15.47
2022-10-18T06:03:41.063Z,15.54
2022-10-18T06:06:11.358Z,15.59
2022-10-18T06:08:40.919Z,15.62
2022-10-18T06:11:11.013Z,15.66
2022-10-18T06:13:40.933Z,15.72
2022-10-18T06:16:10.481Z,15.77
2022-10-18T06:18:40.149Z,15.80
2022-10-18T06:21:09.786Z,15.86
2022-10-18T06:23:38.812Z,15.93
2022-10-18T06:26:08.661Z,15.98
2022-10-18T06:28:38.288Z,16.02
2022-10-18T06:31:07.389Z,16.07
2022-10-18T06:33:37.709Z,16.13
2022-10-18T06:36:07.427Z,16.21
2022-10-18T06:38:36.885Z,16.27
2022-10-18T06:41:06.981Z,16.34
2022-10-18T06:43:35.649Z,16.39
2022-10-18T06:46:07.061Z,16.47
2022-10-18T06:48:36.379Z,16.57
2022-10-18T06:51:06.599Z,16.64
2022-10-18T06:53:43.782Z,16.69
2022-10-18T06:56:14.046Z,16.75
2022-10-18T06:58:42.546Z,16.80
2022-10-18T07:01:13.156Z,16.84
2022-10-18T07:03:42.620Z,16.84
2022-10-18T07:06:12.529Z,16.89
2022-10-18T07:08:41.646Z,16.93
2022-10-18T07:11:15.662Z,16.98
2022-10-18T07:13:44.361Z,17.03
2022-10-18T07:16:17.387Z,17.09
2022-10-18T07:18:51.724Z,17.14
2022-10-18T07:21:21.437Z,17.14
2022-10-18T07:23:50.365Z,17.17
2022-10-18T07:26:32.768Z,17.17
2022-10-18T07:29:09.890Z,17.17
2022-10-18T07:31:39.822Z,17.21
2022-10-18T07:34:11.049Z,17.25
2022-10-18T07:36:40.496Z,17.30
2022-10-18T07:39:10.111Z,17.30
2022-10-18T07:41:40.118Z,17.36
2022-10-18T07:44:09.640Z,17.36
2022-10-18T07:46:38.661Z,17.39
2022-10-18T07:49:07.572Z,17.46
2022-10-18T07:51:36.781Z,17.53
2022-10-18T07:54:05.123Z,17.62
2022-10-18T07:56:34.262Z,17.69
2022-10-18T07:59:03.351Z,17.75
2022-10-18T08:01:32.591Z,17.74
2022-10-18T08:04:06.969Z,17.76
2022-10-18T08:06:37.632Z,17.76
2022-10-18T08:09:06.537Z,17.78
2022-10-18T08:11:35.952Z,17.88
2022-10-18T08:14:04.901Z,17.95
2022-10-18T08:19:07.660Z,18.12
2022-10-18T08:21:36.919Z,18.17
2022-10-18T08:24:06.223Z,18.21
2022-10-18T08:26:35.415Z,18.24
2022-10-18T08:29:21.136Z,18.26
2022-10-18T08:31:51.310Z,18.24
2022-10-18T08:34:20.482Z,18.21
2022-10-18T08:36:49.572Z,18.14
2022-10-18T08:39:18.682Z,18.06
2022-10-18T08:41:48.010Z,18.04
2022-10-18T08:44:28.440Z,18.01
2022-10-18T08:47:12.117Z,17.91
2022-10-18T08:50:01.656Z,17.89
2022-10-18T08:52:46.869Z,17.90
2022-10-18T08:55:36.639Z,17.89
2022-10-18T08:58:14.714Z,17.92
2022-10-18T09:00:50.452Z,17.90
2022-10-18T09:03:38.687Z,17.89
2022-10-18T09:06:22.730Z,17.91
2022-10-18T09:09:02.162Z,17.91
2022-10-18T09:11:37.388Z,17.95
2022-10-18T09:14:09.247Z,17.97
2022-10-18T09:16:38.306Z,17.99
2022-10-18T09:19:26.086Z,18.03
2022-10-18T09:21:56.353Z,18.11
2022-10-18T09:24:33.676Z,18.16
2022-10-18T09:27:05.828Z,18.20
2022-10-18T09:29:50.470Z,18.21
2022-10-18T09:32:28.357Z,18.24
2022-10-18T09:35:03.732Z,18.28
2022-10-18T09:37:34.532Z,18.32
2022-10-18T09:40:23.708Z,18.35
2022-10-18T09:42:52.885Z,18.36
2022-10-18T09:45:21.841Z,18.40
2022-10-18T09:48:00.439Z,18.44
2022-10-18T09:50:48.351Z,18.46
2022-10-18T09:53:19.743Z,18.48
2022-10-18T09:56:03.133Z,18.46
2022-10-18T09:58:40.951Z,18.42
2022-10-18T10:01:10.946Z,18.44
2022-10-18T10:03:39.864Z,18.44
2022-10-18T10:06:17.690Z,18.43
2022-10-18T10:08:51.117Z,18.44
2022-10-18T10:11:40.995Z,18.46
2022-10-18T10:14:10.881Z,18.47
2022-10-18T10:16:51.194Z,18.48
2022-10-18T10:19:31.559Z,18.49
2022-10-18T10:22:04.451Z,18.52
2022-10-18T10:24:47.392Z,18.57
2022-10-18T10:27:19.287Z,18.59
2022-10-18T10:29:52.052Z,18.60
2022-10-18T10:32:22.318Z,18.57
2022-10-18T10:34:51.894Z,18.56
2022-10-18T10:37:23.811Z,18.54
2022-10-18T10:40:18.436Z,18.46
2022-10-18T10:42:54.545Z,18.38
2022-10-18T10:45:30.735Z,18.30
2022-10-18T10:48:08.305Z,18.25
2022-10-18T10:50:51.975Z,18.23
2022-10-18T10:53:39.239Z,18.12
2022-10-18T10:56:16.568Z,18.08
2022-10-18T10:58:45.700Z,18.07
2022-10-18T11:01:22.771Z,18.06
2022-10-18T11:03:53.473Z,18.03
2022-10-18T11:06:58.653Z,18.01
2022-10-18T11:09:33.458Z,18.02
2022-10-18T11:12:05.004Z,18.01
2022-10-18T11:14:45.489Z,17.97
2022-10-18T11:17:24.031Z,17.93
2022-10-18T11:20:10.235Z,17.92
2022-10-18T11:23:00.733Z,17.93
2022-10-18T11:25:39.846Z,17.92
2022-10-18T11:28:11.445Z,17.91
2022-10-18T11:30:43.518Z,17.89
2022-10-18T11:33:12.851Z,17.87
2022-10-18T11:35:44.771Z,17.84
2022-10-18T11:38:16.997Z,17.78
2022-10-18T11:41:04.983Z,17.75
2022-10-18T11:43:57.121Z,17.72
2022-10-18T11:46:22.871Z,17.71
2022-10-18T11:48:55.020Z,17.73
2022-10-18T11:51:44.529Z,17.71
2022-10-18T11:57:32.394Z,17.70
2022-10-18T12:00:01.446Z,17.72
2022-10-18T12:02:49.151Z,17.69
2022-10-18T12:05:23.649Z,17.69
2022-10-18T12:08:13.641Z,17.68
2022-10-18T12:11:03.848Z,17.67
2022-10-18T12:13:45.146Z,17.63
2022-10-18T12:16:14.989Z,17.62
2022-10-18T12:18:48.005Z,17.62
2022-10-18T12:21:23.088Z,17.60
2022-10-18T12:24:03.854Z,17.55
2022-10-18T12:26:34.076Z,17.52
2022-10-18T12:29:08.309Z,17.51
2022-10-18T12:31:46.380Z,17.52
2022-10-18T12:34:25.609Z,17.51
2022-10-18T12:37:00.645Z,17.46
2022-10-18T12:39:43.439Z,17.38
2022-10-18T12:42:34.084Z,17.32
2022-10-18T12:45:18.721Z,17.25
2022-10-18T12:47:47.539Z,17.19
2022-10-18T12:50:27.742Z,17.15
2022-10-18T12:53:23.484Z,17.12
2022-10-18T12:55:54.460Z,17.07
2022-10-18T12:58:32.693Z,17.05
2022-10-18T13:01:03.432Z,17.01
2022-10-18T13:03:51.119Z,16.97
2022-10-18T13:06:20.902Z,16.92
2022-10-18T13:09:09.414Z,16.89
2022-10-18T13:11:38.579Z,16.83
2022-10-18T13:14:14.324Z,16.75
2022-10-18T13:16:45.604Z,16.68
2022-10-18T13:19:33.238Z,16.66
2022-10-18T13:22:11.080Z,16.60
2022-10-18T13:24:39.664Z,16.55
2022-10-18T13:27:41.078Z,16.54
2022-10-18T13:30:10.041Z,16.54
2022-10-18T13:33:01.704Z,16.54
2022-10-18T13:35:45.822Z,16.52
2022-10-18T13:38:27.506Z,16.47
2022-10-18T13:41:02.115Z,16.42
2022-10-18T13:43:52.398Z,16.37
2022-10-18T13:46:22.022Z,16.32
2022-10-18T13:48:55.542Z,16.29
2022-10-18T13:51:45.104Z,16.26
2022-10-18T13:54:20.181Z,16.20
2022-10-18T13:56:54.745Z,16.19
2022-10-18T13:59:42.570Z,16.21
2022-10-18T14:02:36.361Z,16.20
2022-10-18T14:05:28.995Z,16.17
2022-10-18T14:08:08.177Z,16.18
2022-10-18T14:11:00.608Z,16.17
2022-10-18T14:13:38.807Z,16.12
2022-10-18T14:16:17.031Z,16.09
2022-10-18T14:18:49.726Z,16.08
2022-10-18T14:21:28.788Z,16.06
2022-10-18T14:24:00.511Z,16.04
2022-10-18T14:26:29.716Z,16.00
2022-10-18T14:29:15.277Z,15.98
2022-10-18T14:31:50.872Z,15.97
2022-10-18T14:34:19.470Z,16.00
2022-10-18T14:36:49.461Z,16.02
2022-10-18T14:39:22.856Z,16.02
2022-10-18T14:41:53.238Z,16.03
2022-10-18T14:44:29.301Z,16.03
2022-10-18T14:47:13.030Z,16.04
2022-10-18T14:49:48.940Z,16.06
2022-10-18T14:52:26.330Z,16.10
2022-10-18T14:54:56.398Z,16.15
2022-10-18T14:57:28.965Z,16.19
2022-10-18T15:00:19.740Z,16.21
2022-10-18T15:02:48.609Z,16.21
2022-10-18T15:05:17.290Z,16.24
2022-10-18T15:07:46.781Z,16.28
2022-10-18T15:10:20.708Z,16.31
2022-10-18T15:13:08.635Z,16.32
2022-10-18T15:15:39.661Z,16.33
2022-10-18T15:18:08.870Z,16.32
2022-10-18T15:20:43.191Z,16.32
2022-10-18T15:23:33.312Z,16.32
2022-10-18T15:26:07.950Z,16.26
2022-10-18T15:28:53.153Z,16.17
2022-10-18T15:31:22.947Z,16.16
2022-10-18T15:33:52.075Z,16.20
2022-10-18T15:36:27.026Z,16.17
2022-10-18T15:39:14.525Z,16.17
2022-10-18T15:41:55.186Z,16.18
2022-10-18T15:44:27.250Z,16.21
2022-10-18T15:47:09.338Z,16.26
2022-10-18T15:49:47.123Z,16.31
2022-10-18T15:52:21.770Z,16.33
2022-10-18T15:54:50.458Z,16.32
2022-10-18T15:57:19.369Z,16.28
2022-10-18T16:00:02.617Z,16.23
2022-10-18T16:02:40.500Z,16.22
2022-10-18T16:05:14.324Z,16.22
2022-10-18T16:07:43.155Z,16.23
2022-10-18T16:10:15.217Z,16.25
2022-10-18T16:12:44.122Z,16.28
2022-10-18T16:15:12.648Z,16.23
2022-10-18T16:17:41.597Z,16.16
2022-10-18T16:20:21.556Z,16.16
2022-10-18T16:22:49.993Z,16.15
2022-10-18T16:25:18.503Z,16.15
2022-10-18T16:27:46.828Z,16.13
2022-10-18T16:30:19.303Z,16.15
2022-10-18T16:32:49.445Z,16.15
2022-10-18T16:35:18.592Z,16.14
2022-10-18T16:37:47.762Z,16.16
2022-10-18T16:40:22.652Z,16.16
2022-10-18T16:42:51.661Z,16.16
2022-10-18T16:45:20.455Z,16.16
2022-10-18T16:47:49.766Z,16.13
2022-10-18T16:50:19.517Z,16.14
2022-10-18T16:52:48.489Z,16.14
2022-10-18T16:55:21.746Z,16.16
2022-10-18T16:57:50.957Z,16.18
2022-10-18T17:00:21.212Z,16.18
2022-10-18T17:02:50.721Z,16.18
2022-10-18T17:05:19.912Z,16.18
2022-10-18T17:07:48.612Z,16.18
2022-10-18T17:10:19.580Z,16.18
2022-10-18T17:12:47.772Z,16.18
2022-10-18T17:15:16.743Z,16.14
2022-10-18T17:17:46.460Z,16.12
2022-10-18T17:20:19.689Z,16.08
2022-10-18T17:22:48.892Z,16.03
2022-10-18T17:25:18.157Z,15.99
2022-10-18T17:27:47.470Z,15.93
2022-10-18T17:30:18.310Z,15.93
2022-10-18T17:32:47.203Z,15.92
2022-10-18T17:35:16.127Z,15.93
2022-10-18T17:37:51.026Z,15.89
2022-10-18T17:40:20.521Z,15.87
2022-10-18T17:42:50.944Z,15.85
2022-10-18T17:45:20.378Z,15.83
2022-10-18T17:47:49.718Z,15.84
2022-10-18T17:50:18.954Z,15.86
2022-10-18T17:52:48.164Z,15.87
2022-10-18T17:55:17.381Z,15.86
2022-10-18T17:57:46.617Z,15.78
2022-10-18T18:00:16.697Z,15.72
2022-10-18T18:02:47.498Z,15.69
2022-10-18T18:05:17.012Z,15.66
2022-10-18T18:07:47.358Z,15.61
2022-10-18T18:10:16.254Z,15.62
2022-10-18T18:12:46.152Z,15.63
2022-10-18T18:15:14.913Z,15.62
2022-10-18T18:17:56.791Z,15.64
2022-10-18T18:20:27.006Z,15.60
2022-10-18T18:22:55.360Z,15.53
2022-10-18T18:25:24.829Z,15.54
2022-10-18T18:27:54.723Z,15.53
2022-10-18T18:30:23.544Z,15.49
2022-10-18T18:32:52.303Z,15.47
2022-10-18T18:35:20.597Z,15.47
2022-10-18T18:37:50.933Z,15.48
2022-10-18T18:40:19.558Z,15.44
2022-10-18T18:43:01.823Z,15.45
2022-10-18T18:45:36.504Z,15.43
2022-10-18T18:48:05.645Z,15.33
2022-10-18T18:50:37.712Z,15.29
2022-10-18T18:53:06.440Z,15.29
2022-10-18T18:55:40.468Z,15.29
2022-10-18T18:58:10.051Z,15.25
2022-10-18T19:00:43.422Z,15.23
2022-10-18T19:03:14.040Z,15.14
2022-10-18T19:05:43.193Z,15.11
2022-10-18T19:08:12.093Z,15.05
2022-10-18T19:10:49.824Z,14.98
2022-10-18T19:13:21.295Z,14.96
2022-10-18T19:15:50.624Z,14.94
2022-10-18T19:18:23.200Z,14.91
2022-10-18T19:20:54.038Z,14.86
2022-10-18T19:23:23.306Z,14.80
2022-10-18T19:25:51.774Z,14.75
2022-10-18T19:28:20.499Z,14.68
2022-10-18T19:30:50.807Z,14.66
2022-10-18T19:33:41.103Z,14.62
2022-10-18T19:36:12.221Z,14.59
2022-10-18T19:38:41.692Z,14.57
2022-10-18T19:41:10.789Z,14.55
2022-10-18T19:43:39.784Z,14.53
2022-10-18T19:46:09.006Z,14.55
2022-10-18T19:48:37.921Z,14.55
2022-10-18T19:51:09.624Z,14.55
2022-10-18T19:53:39.843Z,14.49
2022-10-18T19:56:09.287Z,14.44
2022-10-18T19:58:38.734Z,14.40
2022-10-18T20:01:07.411Z,14.40
2022-10-18T20:03:36.563Z,14.39
2022-10-18T20:06:05.043Z,14.37
2022-10-18T20:08:35.051Z,14.31
2022-10-18T20:11:05.800Z,14.29
2022-10-18T20:13:35.737Z,14.30
2022-10-18T20:16:07.177Z,14.27
2022-10-18T20:18:35.766Z,14.20
2022-10-18T20:21:06.470Z,14.13
2022-10-18T20:23:37.066Z,14.09
2022-10-18T20:26:07.144Z,13.99
2022-10-18T20:28:38.193Z,13.93
2022-10-18T20:31:09.302Z,13.88
2022-10-18T20:33:38.376Z,13.83
2022-10-18T20:36:08.640Z,13.77
2022-10-18T20:38:38.926Z,13.70
2022-10-18T20:41:27.220Z,13.67
2022-10-18T20:43:59.608Z,13.65
2022-10-18T20:46:30.752Z,13.64
2022-10-18T20:48:59.633Z,13.61
2022-10-18T20:51:28.974Z,13.57
2022-10-18T20:53:57.735Z,13.52
2022-10-18T20:56:32.068Z,13.43
2022-10-18T20:59:01.361Z,13.33
2022-10-18T21:01:32.810Z,13.24
2022-10-18T21:04:03.003Z,13.18
2022-10-18T21:06:35.252Z,13.09
2022-10-18T21:09:09.845Z,13.05
2022-10-18T21:11:40.113Z,13.04
2022-10-18T21:14:17.184Z,13.02
2022-10-18T21:16:46.850Z,13.01
2022-10-18T21:19:17.419Z,12.97
2022-10-18T21:21:46.859Z,12.91
2022-10-18T21:24:16.664Z,12.92
2022-10-18T21:26:45.557Z,12.88
2022-10-18T21:29:19.301Z,12.79
2022-10-18T21:31:50.053Z,12.75
2022-10-18T21:34:19.203Z,12.72
2022-10-18T21:36:51.672Z,12.72
2022-10-18T21:39:22.109Z,12.75
2022-10-18T21:41:52.024Z,12.76
2022-10-18T21:44:21.060Z,12.72
2022-10-18T21:46:50.417Z,12.71
2022-10-18T21:49:19.389Z,12.71
2022-10-18T21:51:48.547Z,12.70
2022-10-18T21:54:18.042Z,12.70
2022-10-18T21:56:47.296Z,12.72
2022-10-18T21:59:16.302Z,12.73
2022-10-18T22:01:46.314Z,12.76
2022-10-18T22:04:23.129Z,12.79
2022-10-18T22:06:52.434Z,12.80
2022-10-18T22:09:22.794Z,12.83
2022-10-18T22:11:52.669Z,12.86
2022-10-18T22:14:22.704Z,12.89
2022-10-18T22:16:52.751Z,12.92
2022-10-18T22:19:21.843Z,12.94
2022-10-18T22:21:50.718Z,12.91
2022-10-18T22:24:19.942Z,12.91
2022-10-18T22:26:48.744Z,12.89
2022-10-18T22:29:19.915Z,12.85
2022-10-18T22:31:53.039Z,12.83
2022-10-18T22:34:23.952Z,12.82
2022-10-18T22:36:52.382Z,12.88
2022-10-18T22:39:21.416Z,12.88
2022-10-18T22:41:56.345Z,12.88
2022-10-18T22:44:25.322Z,12.90
2022-10-18T22:46:54.495Z,12.92
2022-10-18T22:49:23.321Z,12.93
2022-10-18T22:51:52.753Z,12.97
2022-10-18T22:54:21.618Z,13.02
2022-10-18T22:56:50.989Z,13.04
2022-10-18T22:59:19.831Z,13.03
2022-10-18T23:01:48.884Z,13.02
2022-10-18T23:04:18.078Z,13.03
2022-10-18T23:06:46.343Z,13.00
2022-10-18T23:09:15.518Z,13.00
2022-10-18T23:11:44.463Z,13.01
2022-10-18T23:14:12.676Z,13.04
2022-10-18T23:16:41.526Z,13.08
2022-10-18T23:19:14.601Z,13.06
2022-10-18T23:21:43.289Z,13.07
2022-10-18T23:24:12.353Z,13.02
2022-10-18T23:26:41.610Z,12.98
2022-10-18T23:29:10.705Z,12.96
2022-10-18T23:31:39.631Z,12.89
2022-10-18T23:34:08.935Z,12.87
2022-10-18T23:36:38.064Z,12.89
2022-10-18T23:39:06.780Z,12.87
2022-10-18T23:41:35.815Z,12.83
2022-10-18T23:44:05.017Z,12.79
2022-10-18T23:46:34.062Z,12.74
2022-10-18T23:49:03.191Z,12.73
2022-10-18T23:51:31.838Z,12.75
2022-10-18T23:54:00.939Z,12.73
2022-10-18T23:56:29.901Z,12.71
2022-10-18T23:58:58.934Z,12.71
